Time;durP1;ratioP1;P1;durP2;ratioP2;P2;SDS_P1;SDS_P2;PMS_P1;PMS_P2;Temp;Humidity;BMP_temperature;BMP_pressure;BME280_temperature;BME280_humidity;BME280_pressure;Samples;Min_cycle;Max_cycle;Signal;HPM_P1;HPM_P2
2023/11/19 00:00:29;;;;;;;0.30;0.30;;;;;;;5.29;69.15;96418.53;5042713;28;20141;-64
2023/11/19 00:02:56;;;;;;;0.30;0.30;;;;;;;5.79;67.55;96499.16;5042749;28;20052;-65
2023/11/19 00:05:23;;;;;;;0.30;0.30;;;;;;;5.79;65.90;96501.09;5043579;28;20144;-63
2023/11/19 00:07:49;;;;;;;0.30;0.30;;;;;;;5.55;65.94;96440.78;5042614;28;20431;-63
2023/11/19 00:10:20;;;;;;;0.30;0.30;;;;;;;5.86;65.01;96485.59;5043404;28;20056;-63
2023/11/19 00:12:49;;;;;;;0.30;0.30;;;;;;;5.84;65.80;96511.84;5043603;28;20064;-64
2023/11/19 00:15:18;;;;;;;0.30;0.30;;;;;;;5.76;64.99;96477.06;5042092;28;20156;-66
2023/11/19 00:17:47;;;;;;;0.40;0.40;;;;;;;6.02;65.35;96510.38;5041630;28;20158;-64
2023/11/19 00:20:21;;;;;;;0.30;0.30;;;;;;;5.60;64.57;96440.53;5043617;28;20131;-63
2023/11/19 00:22:51;;;;;;;0.30;0.30;;;;;;;5.89;66.27;96506.91;5043629;28;20178;-65
2023/11/19 00:25:19;;;;;;;0.30;0.30;;;;;;;5.87;66.70;96511.16;5043334;28;20515;-66
2023/11/19 00:27:47;;;;;;;0.32;0.32;;;;;;;5.95;66.70;96518.44;5042343;28;20103;-66
2023/11/19 00:30:14;;;;;;;0.30;0.30;;;;;;;5.94;66.27;96525.09;5043687;28;20555;-64
2023/11/19 00:32:42;;;;;;;0.38;0.38;;;;;;;5.39;66.54;96429.00;5043357;28;20048;-65
2023/11/19 00:35:10;;;;;;;0.30;0.30;;;;;;;5.87;67.03;96522.13;5043858;28;20053;-64
2023/11/19 00:37:37;;;;;;;0.30;0.30;;;;;;;5.55;67.20;96460.00;5047636;28;20432;-63
2023/11/19 00:40:05;;;;;;;0.30;0.30;;;;;;;5.91;66.96;96514.81;5047307;28;20060;-64
2023/11/19 00:42:32;;;;;;;0.30;0.30;;;;;;;5.57;67.02;96485.19;5047722;28;20053;-64
2023/11/19 00:44:59;;;;;;;0.30;0.30;;;;;;;5.55;67.42;96492.97;5047540;28;20073;-64
2023/11/19 00:47:26;;;;;;;0.30;0.30;;;;;;;5.58;67.87;96495.03;5047516;28;20071;-64
2023/11/19 00:49:52;;;;;;;0.30;0.30;;;;;;;5.90;69.94;96549.72;5029275;28;20441;-66
2023/11/19 00:52:19;;;;;;;0.30;0.30;;;;;;;5.66;70.29;96510.53;5040248;28;20057;-65
2023/11/19 00:54:46;;;;;;;0.30;0.30;;;;;;;5.64;70.22;96507.38;5047071;28;20649;-64
2023/11/19 00:57:12;;;;;;;0.30;0.30;;;;;;;6.04;71.66;96549.28;5028913;28;20087;-65
2023/11/19 00:59:42;;;;;;;0.30;0.30;;;;;;;6.13;72.12;96542.47;5046914;28;20443;-65
2023/11/19 01:02:09;;;;;;;0.35;0.35;;;;;;;6.19;69.65;96540.25;5046989;28;20051;-65
2023/11/19 01:04:36;;;;;;;0.32;0.32;;;;;;;6.29;70.26;96545.25;5046854;28;20148;-63
2023/11/19 01:07:04;;;;;;;0.30;0.30;;;;;;;6.15;69.52;96548.41;5028678;28;20055;-64
2023/11/19 01:09:35;;;;;;;0.30;0.30;;;;;;;5.86;70.05;96510.34;5046945;28;20075;-64
2023/11/19 01:12:02;;;;;;;0.35;0.35;;;;;;;6.08;71.18;96555.69;5028980;28;20063;-64
2023/11/19 01:14:30;;;;;;;0.30;0.30;;;;;;;6.05;71.63;96561.91;5046751;28;20557;-63
2023/11/19 01:16:57;;;;;;;0.30;0.30;;;;;;;5.98;72.58;96556.19;5028595;28;20061;-63
2023/11/19 01:19:24;;;;;;;0.30;0.30;;;;;;;6.07;71.88;96565.06;5046591;28;20136;-64
2023/11/19 01:21:51;;;;;;;0.30;0.30;;;;;;;5.50;71.46;96515.22;5046684;28;20056;-64
2023/11/19 01:24:18;;;;;;;0.30;0.30;;;;;;;5.87;71.02;96566.09;5046513;28;20505;-64
2023/11/19 01:26:45;;;;;;;0.30;0.30;;;;;;;5.86;72.54;96553.53;5028453;28;20071;-64
2023/11/19 01:29:15;;;;;;;0.30;0.30;;;;;;;5.77;72.04;96553.66;5046488;28;20049;-64
2023/11/19 01:31:43;;;;;;;0.30;0.30;;;;;;;5.72;71.72;96539.38;5046037;28;20098;-65
2023/11/19 01:34:11;;;;;;;0.30;0.30;;;;;;;5.62;71.35;96515.16;5045915;28;20053;-63
2023/11/19 01:36:39;;;;;;;0.32;0.32;;;;;;;5.50;71.36;96501.50;5046363;28;20056;-64
2023/11/19 01:39:06;;;;;;;0.30;0.30;;;;;;;5.73;70.44;96560.19;5045785;28;20084;-64
2023/11/19 01:41:36;;;;;;;0.40;0.40;;;;;;;5.40;69.93;96502.00;5044734;28;20069;-64
2023/11/19 01:44:03;;;;;;;0.30;0.30;;;;;;;5.85;70.06;96557.41;5046064;28;20072;-64
2023/11/19 01:46:32;;;;;;;0.30;0.30;;;;;;;5.75;70.37;96541.44;5061208;28;20056;-66
2023/11/19 01:49:00;;;;;;;0.30;0.30;;;;;;;5.80;70.16;96554.91;5045410;28;20528;-63
2023/11/19 01:51:28;;;;;;;0.30;0.30;;;;;;;5.75;69.29;96541.44;5061191;28;20134;-63
2023/11/19 01:53:56;;;;;;;0.30;0.30;;;;;;;5.34;69.37;96492.41;5046113;28;20430;-64
2023/11/19 01:56:25;;;;;;;0.30;0.30;;;;;;;5.90;68.10;96560.72;5061109;28;20061;-64
2023/11/19 01:58:54;;;;;;;0.30;0.30;;;;;;;5.95;66.89;96540.41;5045769;28;20242;-63
2023/11/19 02:01:22;;;;;;;0.30;0.30;;;;;;;5.93;67.01;96542.72;5045800;28;20112;-64
2023/11/19 02:03:49;;;;;;;0.30;0.30;;;;;;;5.97;66.51;96549.13;5046451;28;20146;-64
2023/11/19 02:06:16;;;;;;;0.40;0.40;;;;;;;6.01;66.25;96539.00;5046343;28;20048;-63
2023/11/19 02:08:43;;;;;;;0.30;0.30;;;;;;;6.01;66.88;96545.31;5046281;28;20171;-63
2023/11/19 02:11:11;;;;;;;0.30;0.30;;;;;;;6.06;67.92;96541.50;5045671;28;20511;-64
2023/11/19 02:13:39;;;;;;;0.30;0.30;;;;;;;6.07;66.44;96532.88;5045617;28;20057;-65
2023/11/19 02:16:08;;;;;;;0.38;0.38;;;;;;;5.41;65.33;96432.19;5045197;28;20428;-63
2023/11/19 02:18:35;;;;;;;0.30;0.30;;;;;;;6.20;65.18;96557.56;5045340;28;20471;-63
2023/11/19 02:21:02;;;;;;;0.35;0.35;;;;;;;6.25;64.63;96555.34;5060620;28;20049;-62
2023/11/19 02:23:30;;;;;;;0.30;0.30;;;;;;;6.01;65.88;96506.00;5045507;28;20094;-65
2023/11/19 02:26:02;;;;;;;0.30;0.30;;;;;;;6.14;70.79;96559.78;5045263;28;20431;-64
2023/11/19 02:28:29;;;;;;;0.30;0.30;;;;;;;5.78;72.13;96529.72;5043880;28;20099;-65
2023/11/19 02:30:56;;;;;;;0.30;0.30;;;;;;;5.95;68.19;96571.47;5043756;28;20080;-63
2023/11/19 02:33:23;;;;;;;0.30;0.30;;;;;;;5.96;68.21;96564.00;5044938;28;20122;-63
2023/11/19 02:35:49;;;;;;;0.30;0.30;;;;;;;5.53;68.36;96495.28;5045151;28;20060;-64
2023/11/19 02:38:16;;;;;;;0.30;0.30;;;;;;;5.46;67.62;96489.59;5027193;28;20159;-63
2023/11/19 02:40:43;;;;;;;0.30;0.30;;;;;;;5.48;68.03;96531.25;5044679;28;20057;-63
2023/11/19 02:43:09;;;;;;;0.30;0.30;;;;;;;5.79;69.95;96569.78;5027283;28;20516;-64
2023/11/19 02:45:36;;;;;;;0.30;0.30;;;;;;;5.79;69.19;96569.78;5044990;28;20167;-62
2023/11/19 02:48:06;;;;;;;0.30;0.30;;;;;;;5.80;69.32;96571.41;5044904;28;20063;-63
2023/11/19 02:50:32;;;;;;;0.20;0.20;;;;;;;5.78;69.75;96573.69;5045072;28;20049;-63
2023/11/19 02:53:01;;;;;;;0.30;0.30;;;;;;;5.76;68.15;96603.47;5044917;28;20566;-63
2023/11/19 02:55:30;;;;;;;0.30;0.30;;;;;;;5.86;68.80;96592.00;5044666;28;20106;-64
2023/11/19 02:57:59;;;;;;;0.30;0.30;;;;;;;5.70;70.26;96555.41;5044867;28;20053;-65
2023/11/19 03:00:35;;;;;;;0.30;0.30;;;;;;;5.83;72.00;96576.22;5044516;28;20657;-63
2023/11/19 03:03:17;;;;;;;0.30;0.30;;;;;;;5.72;72.40;96577.84;5026814;28;20048;-65
2023/11/19 03:05:48;;;;;;;0.30;0.30;;;;;;;5.72;72.61;96578.63;5044640;28;20045;-64
2023/11/19 03:08:16;;;;;;;0.30;0.30;;;;;;;5.13;73.64;96574.16;5044388;28;20059;-65
2023/11/19 03:10:46;;;;;;;0.30;0.30;;;;;;;5.57;73.17;96578.59;5044762;28;20059;-64
2023/11/19 03:13:14;;;;;;;0.30;0.30;;;;;;;5.50;74.07;96579.19;5044566;28;20056;-63
2023/11/19 03:15:41;;;;;;;0.30;0.30;;;;;;;5.48;75.42;96591.66;5044220;28;20049;-62
2023/11/19 03:18:09;;;;;;;0.30;0.30;;;;;;;5.45;75.26;96597.88;5043978;28;20357;-64
2023/11/19 03:20:36;;;;;;;0.30;0.30;;;;;;;5.46;75.56;96588.47;5044149;28;20059;-64
2023/11/19 03:23:03;;;;;;;0.30;0.30;;;;;;;5.40;75.81;96573.38;5043829;28;20464;-63
2023/11/19 03:25:33;;;;;;;0.30;0.30;;;;;;;4.58;76.19;96463.13;5044197;28;20122;-65
2023/11/19 03:28:02;;;;;;;0.30;0.30;;;;;;;5.35;74.99;96593.66;5026249;28;20049;-65
2023/11/19 03:30:29;;;;;;;0.20;0.20;;;;;;;5.41;73.38;96602.44;5026399;28;20051;-63
2023/11/19 03:33:02;;;;;;;0.30;0.30;;;;;;;5.11;74.12;96540.75;5032038;28;20053;-63
2023/11/19 03:35:30;;;;;;;0.30;0.30;;;;;;;5.48;74.66;96597.97;5044298;28;20427;-65
2023/11/19 03:37:57;;;;;;;0.30;0.30;;;;;;;5.48;74.66;96591.66;5042723;28;20053;-64
2023/11/19 03:40:25;;;;;;;0.30;0.30;;;;;;;5.49;74.25;96593.25;5042373;28;20053;-64
2023/11/19 03:42:52;;;;;;;0.30;0.30;;;;;;;5.51;73.68;96601.97;5058724;28;20748;-64
2023/11/19 03:45:18;;;;;;;0.30;0.30;;;;;;;5.49;73.12;96598.75;5042422;28;20063;-65
2023/11/19 03:47:45;;;;;;;0.30;0.30;;;;;;;5.55;72.54;96597.34;5043644;28;20045;-64
2023/11/19 03:50:12;;;;;;;0.20;0.20;;;;;;;5.53;72.64;96605.16;5043810;28;20049;-64
2023/11/19 03:52:39;;;;;;;0.30;0.30;;;;;;;5.55;73.11;96600.09;5042389;28;20548;-64
2023/11/19 03:55:08;;;;;;;0.30;0.30;;;;;;;5.54;73.14;96596.56;5043840;28;20515;-63
2023/11/19 03:57:35;;;;;;;0.30;0.30;;;;;;;5.50;72.58;96600.38;5044246;28;20126;-62
2023/11/19 04:00:10;;;;;;;0.30;0.30;;;;;;;4.95;71.39;96523.44;5043914;28;20063;-62
2023/11/19 04:02:37;;;;;;;0.20;0.20;;;;;;;5.05;70.86;96542.13;5043900;28;20131;-61
2023/11/19 04:05:05;;;;;;;0.30;0.30;;;;;;;5.34;70.94;96585.75;5043664;28;20049;-62
2023/11/19 04:07:32;;;;;;;0.20;0.20;;;;;;;5.66;69.13;96631.41;5044002;28;20048;-63
2023/11/19 04:09:59;;;;;;;0.30;0.30;;;;;;;5.69;67.81;96620.53;5042254;28;20053;-63
2023/11/19 04:12:26;;;;;;;0.30;0.30;;;;;;;5.49;68.18;96583.09;5047700;28;20601;-62
2023/11/19 04:14:52;;;;;;;0.30;0.30;;;;;;;5.68;66.98;96634.63;5047858;28;20063;-65
2023/11/19 04:17:23;;;;;;;0.30;0.30;;;;;;;5.73;67.33;96615.16;5032714;28;20050;-63
2023/11/19 04:19:50;;;;;;;0.30;0.30;;;;;;;4.99;68.35;96529.81;5027580;28;20053;-64
2023/11/19 04:22:16;;;;;;;0.30;0.30;;;;;;;5.56;69.34;96604.47;5026288;28;20045;-63
2023/11/19 04:24:45;;;;;;;0.30;0.30;;;;;;;5.71;68.71;96639.41;5027895;28;20060;-63
2023/11/19 04:27:12;;;;;;;0.30;0.30;;;;;;;5.71;69.16;96640.22;5027696;28;20320;-63
2023/11/19 04:29:39;;;;;;;0.30;0.30;;;;;;;5.72;69.85;96646.53;5026286;28;20128;-63
2023/11/19 04:32:06;;;;;;;0.30;0.30;;;;;;;5.56;69.03;96640.97;5027562;28;20057;-64
2023/11/19 04:34:33;;;;;;;0.30;0.30;;;;;;;5.69;69.41;96644.50;5045982;28;20056;-64
2023/11/19 04:37:04;;;;;;;0.30;0.30;;;;;;;5.74;69.72;96671.69;5047539;28;20055;-61
2023/11/19 04:39:33;;;;;;;0.22;0.22;;;;;;;5.71;69.21;96661.41;5046382;28;20053;-62
2023/11/19 04:42:00;;;;;;;0.30;0.30;;;;;;;5.68;69.83;96662.09;5047579;28;20060;-63
2023/11/19 04:44:28;;;;;;;0.30;0.30;;;;;;;5.73;70.17;96664.63;5047295;28;20486;-63
2023/11/19 04:46:57;;;;;;;0.22;0.22;;;;;;;5.80;70.15;96673.06;5045848;28;20057;-62
2023/11/19 04:49:26;;;;;;;0.30;0.30;;;;;;;5.37;68.94;96616.09;5047270;28;20057;-63
2023/11/19 04:51:54;;;;;;;0.30;0.30;;;;;;;5.86;68.95;96691.72;5047120;28;20056;-64
2023/11/19 04:54:20;;;;;;;0.30;0.30;;;;;;;5.89;69.78;96684.75;5070436;28;20110;-65
2023/11/19 04:56:47;;;;;;;0.30;0.30;;;;;;;5.85;69.11;96695.63;5082551;28;20044;-63
2023/11/19 04:59:14;;;;;;;0.30;0.30;;;;;;;5.58;68.92;96646.13;5066732;28;20052;-62
2023/11/19 05:01:41;;;;;;;0.30;0.30;;;;;;;5.92;68.98;96712.34;5066975;28;20615;-65
2023/11/19 05:04:08;;;;;;;0.30;0.30;;;;;;;5.85;68.63;96690.13;5065202;28;20056;-62
2023/11/19 05:06:35;;;;;;;0.30;0.30;;;;;;;6.01;66.91;96725.94;5065481;28;20052;-62
2023/11/19 05:09:07;;;;;;;0.30;0.30;;;;;;;6.15;66.80;96720.84;5066814;28;20045;-63
2023/11/19 05:11:34;;;;;;;0.30;0.30;;;;;;;6.18;67.35;96731.13;5066592;28;20118;-63
2023/11/19 05:14:04;;;;;;;0.30;0.30;;;;;;;5.77;67.43;96666.31;5065630;28;20055;-64
2023/11/19 05:16:31;;;;;;;0.30;0.30;;;;;;;6.11;67.05;96730.94;5066582;28;21267;-65
2023/11/19 05:18:58;;;;;;;0.30;0.30;;;;;;;5.59;66.72;96620.25;5065211;28;20123;-64
2023/11/19 05:21:25;;;;;;;0.30;0.30;;;;;;;5.89;66.20;96693.00;5066667;28;20062;-64
2023/11/19 05:23:52;;;;;;;0.30;0.30;;;;;;;6.17;66.91;96735.03;5066722;28;20070;-64
2023/11/19 05:26:20;;;;;;;0.30;0.30;;;;;;;6.24;66.55;96743.50;5081598;28;20052;-64
2023/11/19 05:28:47;;;;;;;0.30;0.30;;;;;;;6.18;66.90;96747.63;5066477;28;20048;-63
2023/11/19 05:31:14;;;;;;;0.30;0.30;;;;;;;5.96;66.78;96695.94;5066849;28;20534;-64
2023/11/19 05:33:41;;;;;;;0.30;0.30;;;;;;;5.86;66.47;96669.75;5074153;28;20106;-64
2023/11/19 05:36:08;;;;;;;0.30;0.30;;;;;;;6.46;65.80;96758.66;5047581;28;20129;-63
2023/11/19 05:38:36;;;;;;;0.30;0.30;;;;;;;6.29;65.92;96754.25;5066008;28;20062;-63
2023/11/19 05:41:04;;;;;;;0.30;0.30;;;;;;;6.47;66.44;96766.53;5046474;28;20526;-63
2023/11/19 05:43:32;;;;;;;0.30;0.30;;;;;;;6.46;65.00;96769.66;5065014;28;20048;-64
2023/11/19 05:45:59;;;;;;;0.30;0.30;;;;;;;6.10;64.23;96707.34;5064943;28;20052;-64
2023/11/19 05:48:27;;;;;;;0.30;0.30;;;;;;;6.16;63.68;96734.22;5064734;28;20048;-64
2023/11/19 05:50:54;;;;;;;0.30;0.30;;;;;;;6.78;62.04;96774.09;5046942;28;20064;-64
2023/11/19 05:53:21;;;;;;;0.32;0.32;;;;;;;6.83;62.39;96755.34;5064510;28;20063;-64
2023/11/19 05:55:54;;;;;;;0.30;0.30;;;;;;;6.48;62.65;96715.88;5065936;28;20045;-64
2023/11/19 05:58:26;;;;;;;0.35;0.35;;;;;;;6.88;63.22;96777.13;5066005;28;20052;-65
2023/11/19 06:00:52;;;;;;;0.30;0.30;;;;;;;6.93;62.32;96757.59;5064756;28;20052;-66
2023/11/19 06:03:21;;;;;;;0.40;0.40;;;;;;;6.98;61.91;96754.59;5048146;28;20064;-62
2023/11/19 06:05:49;;;;;;;0.30;0.30;;;;;;;6.93;60.86;96730.06;5065779;28;20048;-64
2023/11/19 06:08:16;;;;;;;0.40;0.40;;;;;;;6.94;61.04;96748.16;5064524;28;20113;-64
2023/11/19 06:10:46;;;;;;;0.30;0.30;;;;;;;6.29;61.05;96638.75;5047514;28;20426;-63
2023/11/19 06:13:14;;;;;;;0.30;0.30;;;;;;;6.82;60.38;96755.72;5065854;28;20308;-63
2023/11/19 06:15:42;;;;;;;0.32;0.32;;;;;;;6.31;61.19;96685.16;5063469;28;20084;-63
2023/11/19 06:18:09;;;;;;;0.30;0.30;;;;;;;6.62;61.39;96746.53;5047062;28;20581;-64
2023/11/19 06:20:36;;;;;;;0.30;0.30;;;;;;;6.64;62.68;96754.44;5065492;28;20131;-64
2023/11/19 06:23:06;;;;;;;0.40;0.40;;;;;;;6.31;62.71;96696.94;5047913;28;20044;-63
2023/11/19 06:25:35;;;;;;;0.40;0.40;;;;;;;6.64;61.97;96719.44;5063854;28;20072;-64
2023/11/19 06:28:03;;;;;;;0.30;0.30;;;;;;;6.15;60.76;96671.34;5063889;28;20049;-64
2023/11/19 06:30:32;;;;;;;0.30;0.30;;;;;;;6.78;61.18;96777.63;5064023;28;20136;-64
2023/11/19 06:32:59;;;;;;;0.30;0.30;;;;;;;6.79;61.33;96773.75;5064843;28;20048;-64
2023/11/19 06:35:28;;;;;;;0.40;0.40;;;;;;;6.76;61.01;96757.94;5064808;28;20404;-63
2023/11/19 06:37:56;;;;;;;0.35;0.35;;;;;;;6.74;61.02;96765.72;5065146;28;20157;-64
2023/11/19 06:40:22;;;;;;;0.30;0.30;;;;;;;6.78;61.66;96772.13;5064634;28;20053;-64
2023/11/19 06:42:52;;;;;;;0.40;0.40;;;;;;;6.89;61.13;96750.41;5064991;28;20110;-64
2023/11/19 06:45:19;;;;;;;0.30;0.30;;;;;;;6.74;60.80;96743.72;5064881;28;20064;-65
2023/11/19 06:47:45;;;;;;;0.30;0.30;;;;;;;6.95;61.18;96763.56;5063622;28;20053;-64
2023/11/19 06:50:12;;;;;;;0.30;0.30;;;;;;;7.00;60.54;96785.28;5065301;28;20173;-65
2023/11/19 06:52:39;;;;;;;0.40;0.40;;;;;;;7.02;59.80;96785.75;5065255;28;20550;-63
2023/11/19 06:55:07;;;;;;;0.40;0.40;;;;;;;6.88;60.31;96790.06;5064587;28;20122;-64
2023/11/19 06:57:34;;;;;;;0.35;0.35;;;;;;;6.47;60.82;96717.03;5064676;28;20040;-64
2023/11/19 07:00:01;;;;;;;0.30;0.30;;;;;;;6.91;60.89;96759.88;5064154;28;20083;-65
2023/11/19 07:02:28;;;;;;;0.40;0.40;;;;;;;6.31;60.07;96683.19;5063209;28;20462;-64
2023/11/19 07:04:55;;;;;;;0.40;0.40;;;;;;;7.08;60.70;96773.31;5064772;28;20164;-63
2023/11/19 07:07:22;;;;;;;0.30;0.30;;;;;;;7.03;59.93;96773.59;5063896;28;20068;-63
2023/11/19 07:09:48;;;;;;;0.40;0.40;;;;;;;5.85;60.75;96569.22;5064604;28;20045;-64
2023/11/19 07:12:15;;;;;;;0.30;0.30;;;;;;;7.32;60.44;96786.94;5064071;28;20053;-64
2023/11/19 07:14:42;;;;;;;0.30;0.30;;;;;;;7.20;60.32;96784.28;5064243;28;20071;-65
2023/11/19 07:17:10;;;;;;;0.30;0.30;;;;;;;7.28;59.54;96777.78;5079075;28;20439;-65
2023/11/19 07:19:38;;;;;;;0.30;0.30;;;;;;;7.33;59.07;96773.97;5063957;28;20061;-63
2023/11/19 07:22:06;;;;;;;0.38;0.38;;;;;;;7.32;59.53;96781.41;5064420;28;20096;-63
2023/11/19 07:24:33;;;;;;;0.35;0.35;;;;;;;7.40;59.00;96776.88;5064396;28;20102;-63
2023/11/19 07:27:00;;;;;;;0.40;0.40;;;;;;;7.41;59.45;96793.03;5064220;28;20563;-63
2023/11/19 07:29:27;;;;;;;0.40;0.40;;;;;;;6.51;59.78;96618.91;5064324;28;20048;-63
2023/11/19 07:31:56;;;;;;;0.40;0.40;;;;;;;7.42;59.47;96749.78;5062936;28;20056;-64
2023/11/19 07:34:24;;;;;;;0.38;0.38;;;;;;;7.92;58.91;96804.13;5063437;28;20052;-63
2023/11/19 07:36:51;;;;;;;0.40;0.40;;;;;;;8.07;58.20;96806.03;5062399;28;20561;-64
2023/11/19 07:39:20;;;;;;;0.40;0.40;;;;;;;7.63;57.84;96740.03;5045668;28;20511;-63
2023/11/19 07:41:47;;;;;;;0.40;0.40;;;;;;;5.43;57.64;96405.16;5063953;28;20055;-64
2023/11/19 07:44:14;;;;;;;0.40;0.40;;;;;;;7.44;58.08;96734.50;5045813;28;20056;-63
2023/11/19 07:46:42;;;;;;;0.40;0.40;;;;;;;7.88;58.46;96798.53;5044733;28;20052;-63
2023/11/19 07:49:10;;;;;;;0.40;0.40;;;;;;;8.02;58.64;96825.63;5062091;28;20112;-64
2023/11/19 07:51:37;;;;;;;0.30;0.30;;;;;;;7.60;59.32;96804.16;5063661;28;20056;-65
2023/11/19 07:54:04;;;;;;;0.40;0.40;;;;;;;8.01;59.40;96846.09;5063736;28;20148;-63
2023/11/19 07:56:34;;;;;;;0.40;0.40;;;;;;;8.18;59.52;96840.19;5062171;28;20064;-64
2023/11/19 07:59:02;;;;;;;0.40;0.40;;;;;;;8.20;58.82;96821.31;5063281;28;20491;-62
2023/11/19 08:01:29;;;;;;;0.40;0.40;;;;;;;8.32;58.82;96812.94;5063555;28;20049;-63
2023/11/19 08:03:55;;;;;;;0.40;0.40;;;;;;;8.17;57.90;96780.66;5045645;28;20129;-63
2023/11/19 08:06:25;;;;;;;0.40;0.40;;;;;;;8.57;57.86;96830.81;5061849;28;20531;-64
2023/11/19 08:08:52;;;;;;;0.40;0.40;;;;;;;8.69;57.95;96833.47;5045610;28;20131;-64
2023/11/19 08:11:22;;;;;;;0.40;0.40;;;;;;;8.82;56.68;96824.66;5063332;28;20049;-63
2023/11/19 08:13:49;;;;;;;0.43;0.43;;;;;;;8.06;56.30;96710.66;5063486;28;20044;-64
2023/11/19 08:16:15;;;;;;;0.40;0.40;;;;;;;8.41;56.11;96769.38;5062066;28;20102;-65
2023/11/19 08:18:45;;;;;;;0.40;0.40;;;;;;;8.11;54.06;96724.19;5063353;28;20466;-65
2023/11/19 08:21:12;;;;;;;0.40;0.40;;;;;;;8.85;53.39;96803.81;5063539;28;20059;-63
2023/11/19 08:23:38;;;;;;;0.40;0.40;;;;;;;8.86;52.80;96802.63;5063881;28;20048;-63
2023/11/19 08:26:06;;;;;;;0.47;0.47;;;;;;;7.06;53.97;96514.03;5063613;28;20057;-64
2023/11/19 08:28:34;;;;;;;0.45;0.45;;;;;;;9.00;53.84;96800.13;5063655;28;20531;-64
2023/11/19 08:31:04;;;;;;;0.50;0.50;;;;;;;9.18;54.64;96812.34;5063288;28;20055;-64
2023/11/19 08:33:31;;;;;;;0.40;0.40;;;;;;;9.05;53.34;96786.03;5063565;28;20057;-62
2023/11/19 08:35:58;;;;;;;0.40;0.40;;;;;;;9.33;52.88;96839.06;5062892;28;20080;-65
2023/11/19 08:38:25;;;;;;;0.40;0.40;;;;;;;8.59;52.38;96715.31;5063454;28;20481;-63
2023/11/19 08:40:59;;;;;;;0.50;0.50;;;;;;;9.06;52.13;96793.16;5063523;28;20064;-64
2023/11/19 08:43:27;;;;;;;0.47;0.47;;;;;;;9.44;52.69;96820.69;5063347;28;20063;-65
2023/11/19 08:45:54;;;;;;;0.50;0.50;;;;;;;9.67;51.78;96812.41;5063016;28;20048;-64
2023/11/19 08:48:21;;;;;;;0.40;0.40;;;;;;;9.83;51.96;96816.59;5063345;28;20129;-64
2023/11/19 08:50:48;;;;;;;0.50;0.50;;;;;;;9.73;51.72;96750.88;5061649;28;20503;-62
2023/11/19 08:53:15;;;;;;;0.50;0.50;;;;;;;10.06;51.78;96831.22;5062257;28;20411;-64
2023/11/19 08:55:42;;;;;;;0.50;0.50;;;;;;;10.25;50.82;96833.09;5077836;28;20721;-63
2023/11/19 08:58:09;;;;;;;0.50;0.50;;;;;;;9.97;51.10;96827.94;5064623;28;20056;-63
2023/11/19 09:00:35;;;;;;;0.50;0.50;;;;;;;10.06;51.23;96825.69;5066557;28;20106;-64
2023/11/19 09:03:02;;;;;;;0.40;0.40;;;;;;;9.82;50.45;96759.69;5066712;28;20098;-65
2023/11/19 09:05:30;;;;;;;0.50;0.50;;;;;;;9.94;50.24;96786.38;5065803;28;20056;-63
2023/11/19 09:07:57;;;;;;;0.50;0.50;;;;;;;9.96;50.59;96831.84;5066210;28;20429;-63
2023/11/19 09:10:23;;;;;;;0.45;0.45;;;;;;;10.02;50.78;96874.63;5064893;28;20135;-62
2023/11/19 09:12:50;;;;;;;0.40;0.40;;;;;;;9.93;51.58;96832.59;5081721;28;20048;-63
2023/11/19 09:15:17;;;;;;;0.50;0.50;;;;;;;9.99;51.82;96819.25;5065089;28;20048;-62
2023/11/19 09:17:45;;;;;;;0.50;0.50;;;;;;;10.33;50.20;96818.19;5065911;28;20139;-62
2023/11/19 09:20:15;;;;;;;0.40;0.40;;;;;;;8.42;49.56;96570.31;5066434;28;20052;-63
2023/11/19 09:22:42;;;;;;;0.40;0.40;;;;;;;10.21;49.84;96808.13;5065353;28;20395;-64
2023/11/19 09:25:09;;;;;;;0.50;0.50;;;;;;;10.32;49.55;96806.31;5082054;28;20630;-63
2023/11/19 09:27:36;;;;;;;0.47;0.47;;;;;;;10.41;48.98;96826.25;5066398;28;20356;-64
2023/11/19 09:30:04;;;;;;;0.50;0.50;;;;;;;9.79;49.19;96713.41;5066591;28;20485;-64
2023/11/19 09:32:31;;;;;;;0.50;0.50;;;;;;;10.67;49.79;96823.41;5066721;28;20063;-64
2023/11/19 09:34:58;;;;;;;0.40;0.40;;;;;;;10.16;49.47;96753.09;5048351;28;20048;-63
2023/11/19 09:37:25;;;;;;;0.40;0.40;;;;;;;10.61;48.70;96790.88;5048370;28;20048;-63
2023/11/19 09:39:53;;;;;;;0.40;0.40;;;;;;;10.62;48.84;96809.88;5066001;28;20068;-63
2023/11/19 09:42:20;;;;;;;0.40;0.40;;;;;;;10.78;48.14;96806.13;5064566;28;20056;-63
2023/11/19 09:44:48;;;;;;;0.40;0.40;;;;;;;10.88;47.78;96816.53;5047918;28;20053;-63
2023/11/19 09:47:17;;;;;;;0.50;0.50;;;;;;;11.06;47.62;96817.56;5065945;28;20071;-64
2023/11/19 09:49:44;;;;;;;0.50;0.50;;;;;;;11.03;47.64;96801.69;5066226;28;20361;-64
2023/11/19 09:52:11;;;;;;;0.50;0.50;;;;;;;11.16;47.64;96794.72;5065885;28;20435;-65
2023/11/19 09:54:37;;;;;;;0.50;0.50;;;;;;;10.85;47.37;96761.88;5065967;28;20044;-65
2023/11/19 09:57:07;;;;;;;0.47;0.47;;;;;;;11.03;46.83;96796.13;5065376;28;20053;-64
2023/11/19 09:59:34;;;;;;;0.50;0.50;;;;;;;10.58;46.42;96708.56;5066079;28;20495;-64
2023/11/19 10:02:02;;;;;;;0.50;0.50;;;;;;;10.68;45.99;96739.13;5065692;28;20127;-63
2023/11/19 10:04:30;;;;;;;0.50;0.50;;;;;;;11.24;45.77;96804.69;5065911;28;20109;-63
2023/11/19 10:06:57;;;;;;;0.50;0.50;;;;;;;11.10;45.85;96796.19;5066003;28;20049;-63
2023/11/19 10:09:24;;;;;;;0.43;0.43;;;;;;;11.26;46.42;96794.00;5064484;28;20059;-63
2023/11/19 10:11:51;;;;;;;0.50;0.50;;;;;;;11.16;45.48;96789.94;5065544;28;20052;-62
2023/11/19 10:14:23;;;;;;;0.50;0.50;;;;;;;10.80;45.75;96723.41;5065431;28;20044;-64
2023/11/19 10:16:50;;;;;;;0.50;0.50;;;;;;;11.22;45.87;96787.63;5047516;28;20064;-63
2023/11/19 10:19:23;;;;;;;0.50;0.50;;;;;;;11.18;45.65;96765.41;5065695;28;20044;-63
2023/11/19 10:21:50;;;;;;;0.50;0.50;;;;;;;11.40;45.67;96805.22;5065981;28;20076;-64
2023/11/19 10:24:30;;;;;;;0.50;0.50;;;;;;;11.22;44.94;96787.63;5065293;28;20146;-63
2023/11/19 10:26:57;;;;;;;0.50;0.50;;;;;;;11.34;44.92;96795.66;5047389;28;20135;-63
2023/11/19 10:29:24;;;;;;;0.50;0.50;;;;;;;10.45;45.00;96660.94;5065304;28;20159;-63
2023/11/19 10:31:58;;;;;;;0.50;0.50;;;;;;;11.56;44.69;96787.19;5046743;28;20491;-63
2023/11/19 10:34:45;;;;;;;0.50;0.50;;;;;;;10.89;44.79;96657.44;5065022;28;20467;-64
2023/11/19 10:37:41;;;;;;;0.50;0.50;;;;;;;11.60;45.38;96788.00;5065040;28;20137;-65
2023/11/19 10:40:10;;;;;;;0.43;0.43;;;;;;;11.55;45.21;96787.56;5046370;28;20056;-63
2023/11/19 10:42:37;;;;;;;0.50;0.50;;;;;;;11.58;45.19;96784.00;5064433;28;20056;-62
2023/11/19 10:45:05;;;;;;;0.50;0.50;;;;;;;11.83;44.66;96785.03;5064474;28;20049;-64
2023/11/19 10:47:34;;;;;;;0.50;0.50;;;;;;;11.43;45.13;96671.38;5064098;28;20058;-63
2023/11/19 10:50:06;;;;;;;0.50;0.50;;;;;;;12.37;44.53;96793.38;5064827;28;20040;-64
2023/11/19 10:52:33;;;;;;;0.50;0.50;;;;;;;12.23;44.24;96787.72;5079647;28;20143;-63
2023/11/19 10:55:04;;;;;;;0.50;0.50;;;;;;;12.20;44.49;96755.97;5063357;28;20131;-63
2023/11/19 10:57:36;;;;;;;0.50;0.50;;;;;;;12.70;43.70;96776.47;5062861;28;20105;-62
2023/11/19 11:00:12;;;;;;;0.57;0.57;;;;;;;12.50;43.33;96727.97;5062881;28;20450;-64
2023/11/19 11:02:44;;;;;;;0.50;0.50;;;;;;;12.91;42.99;96768.22;5064121;28;20074;-64
2023/11/19 11:05:14;;;;;;;0.60;0.60;;;;;;;12.82;42.58;96770.56;5062873;28;20507;-63
2023/11/19 11:07:44;;;;;;;0.55;0.55;;;;;;;12.88;42.43;96724.50;5063887;28;20596;-63
2023/11/19 11:10:12;;;;;;;0.60;0.60;;;;;;;13.28;42.64;96759.59;5063134;28;20056;-62
2023/11/19 11:12:41;;;;;;;0.60;0.60;;;;;;;13.39;41.76;96771.53;5064067;28;20481;-64
2023/11/19 11:15:12;;;;;;;0.60;0.60;;;;;;;13.47;40.99;96768.38;5062953;28;20056;-64
2023/11/19 11:17:39;;;;;;;0.50;0.50;;;;;;;13.36;41.74;96775.91;5063490;28;20106;-63
2023/11/19 11:20:08;;;;;;;0.60;0.60;;;;;;;13.53;42.14;96732.63;5063621;28;20503;-63
2023/11/19 11:23:00;;;;;;;0.60;0.60;;;;;;;13.72;41.27;96750.91;5046063;28;20538;-63
2023/11/19 11:26:11;;;;;;;0.60;0.60;;;;;;;13.38;41.36;96765.19;5064566;28;20052;-63
2023/11/19 11:28:54;;;;;;;0.60;0.60;;;;;;;13.44;41.54;96754.44;5064104;28;20052;-64
2023/11/19 11:31:30;;;;;;;0.60;0.60;;;;;;;13.27;41.35;96747.69;5044557;28;20058;-63
2023/11/19 11:34:25;;;;;;;0.50;0.50;;;;;;;13.10;42.42;96737.28;5062095;28;20060;-62
2023/11/19 11:37:18;;;;;;;0.55;0.55;;;;;;;12.79;42.22;96737.19;5062802;28;20056;-66
2023/11/19 11:39:47;;;;;;;0.60;0.60;;;;;;;12.10;42.46;96644.84;5061807;28;20593;-62
2023/11/19 11:42:17;;;;;;;0.55;0.55;;;;;;;12.63;42.57;96742.31;5061859;28;20098;-64
2023/11/19 11:45:00;;;;;;;0.55;0.55;;;;;;;12.42;42.76;96740.22;5060520;28;20522;-63